createdAt,value
2022-07-27T00:00:04.928Z,100376.53
2022-07-27T00:05:12.014Z,100379.56
2022-07-27T00:10:23.919Z,100382.41
2022-07-27T00:15:29.454Z,100373.56
2022-07-27T00:20:34.654Z,100377.16
2022-07-27T00:25:44.562Z,100377.47
2022-07-27T00:30:51.020Z,100380.06
2022-07-27T00:36:05.151Z,100390.00
2022-07-27T00:41:13.236Z,100397.31
2022-07-27T00:46:23.503Z,100390.09
2022-07-27T00:51:34.859Z,100383.03
2022-07-27T00:56:50.122Z,100393.66
2022-07-27T01:01:59.904Z,100392.88
2022-07-27T01:07:10.030Z,100416.00
2022-07-27T01:12:23.203Z,100408.53
2022-07-27T01:17:34.926Z,100407.25
2022-07-27T01:22:41.707Z,100418.41
2022-07-27T01:27:47.404Z,100415.50
2022-07-27T01:32:52.644Z,100414.19
2022-07-27T01:38:07.861Z,100407.13
2022-07-27T01:43:16.161Z,100411.06
2022-07-27T01:48:21.348Z,100433.66
2022-07-27T01:53:28.888Z,100425.44
2022-07-27T01:58:37.253Z,100424.94
2022-07-27T02:03:51.892Z,100423.69
2022-07-27T02:09:20.998Z,100445.69
2022-07-27T02:14:41.479Z,100436.28
2022-07-27T02:19:51.260Z,100438.84
2022-07-27T02:25:04.615Z,100439.19
2022-07-27T02:30:24.940Z,100451.00
2022-07-27T02:35:34.153Z,100443.75
2022-07-27T02:40:47.786Z,100451.06
2022-07-27T02:46:02.699Z,100452.44
2022-07-27T02:51:09.776Z,100445.38
2022-07-27T02:56:39.118Z,100427.69
2022-07-27T03:01:48.094Z,100432.03
2022-07-27T03:06:56.925Z,100422.34
2022-07-27T03:12:09.322Z,100431.16
2022-07-27T03:17:20.039Z,100435.13
2022-07-27T03:22:25.551Z,100427.06
2022-07-27T03:27:32.078Z,100413.25
2022-07-27T03:32:38.337Z,100428.84
2022-07-27T03:37:43.909Z,100435.13
2022-07-27T03:42:53.572Z,100429.88
2022-07-27T03:47:59.835Z,100431.34
2022-07-27T03:53:04.543Z,100438.81
2022-07-27T03:58:11.729Z,100434.34
2022-07-27T04:03:16.145Z,100447.56
2022-07-27T04:08:26.543Z,100448.28
2022-07-27T04:13:38.208Z,100450.72
2022-07-27T04:18:45.959Z,100446.91
2022-07-27T04:23:50.984Z,100454.03
2022-07-27T04:29:13.105Z,100462.09
2022-07-27T04:34:20.935Z,100463.94
2022-07-27T04:39:26.759Z,100465.75
2022-07-27T04:44:36.094Z,100473.50
2022-07-27T04:49:41.954Z,100471.72
2022-07-27T04:54:49.000Z,100479.81
2022-07-27T04:59:57.501Z,100471.88
2022-07-27T05:05:04.991Z,100477.00
2022-07-27T05:10:20.718Z,100474.84
2022-07-27T05:15:29.514Z,100483.09
2022-07-27T05:21:03.555Z,100491.88
2022-07-27T05:26:11.506Z,100495.84
2022-07-27T05:31:19.435Z,100498.63
2022-07-27T05:36:33.252Z,100504.88
2022-07-27T05:41:42.919Z,100512.31
2022-07-27T05:46:49.339Z,100517.59
2022-07-27T05:51:54.037Z,100530.84
2022-07-27T05:56:59.447Z,100543.44
2022-07-27T06:02:08.040Z,100543.28
2022-07-27T06:07:31.146Z,100553.31
2022-07-27T06:12:42.001Z,100555.31
2022-07-27T06:17:58.035Z,100555.13
2022-07-27T06:23:07.621Z,100552.69
2022-07-27T06:33:33.974Z,100569.22
2022-07-27T06:38:41.674Z,100567.41
2022-07-27T06:43:46.859Z,100568.56
2022-07-27T06:48:58.838Z,100568.34
2022-07-27T06:54:05.017Z,100569.63
2022-07-27T06:59:15.432Z,100571.38
2022-07-27T07:04:25.322Z,100572.16
2022-07-27T07:09:33.275Z,100569.56
2022-07-27T07:14:38.325Z,100573.19
2022-07-27T07:19:47.848Z,100577.53
2022-07-27T07:25:00.696Z,100572.56
2022-07-27T07:30:13.318Z,100577.00
2022-07-27T07:35:31.509Z,100560.28
2022-07-27T07:41:04.001Z,100573.41
2022-07-27T07:46:15.868Z,100575.44
2022-07-27T07:51:26.751Z,100571.25
2022-07-27T07:56:49.108Z,100569.41
2022-07-27T08:02:06.263Z,100574.44
2022-07-27T08:07:12.847Z,100571.97
2022-07-27T08:12:25.179Z,100571.88
2022-07-27T08:17:29.983Z,100567.09
2022-07-27T08:22:39.042Z,100570.47
2022-07-27T08:27:48.697Z,100582.94
2022-07-27T08:33:04.788Z,100575.69
2022-07-27T08:38:11.739Z,100581.66
2022-07-27T08:43:25.370Z,100580.00
2022-07-27T08:48:33.381Z,100590.94
2022-07-27T08:53:52.793Z,100585.81
2022-07-27T08:59:06.022Z,100590.28
2022-07-27T09:04:13.027Z,100591.31
2022-07-27T09:09:35.586Z,100594.19
2022-07-27T09:14:47.598Z,100592.44
2022-07-27T09:19:58.086Z,100592.00
2022-07-27T09:25:28.443Z,100583.25
2022-07-27T09:30:48.335Z,100575.84
2022-07-27T09:36:34.227Z,100572.41
2022-07-27T09:41:46.274Z,100557.91
2022-07-27T09:47:03.150Z,100550.75
2022-07-27T09:52:09.015Z,100552.59
2022-07-27T09:57:16.309Z,100551.75
2022-07-27T10:02:26.770Z,100562.03
2022-07-27T10:07:41.201Z,100577.81
2022-07-27T10:12:54.125Z,100567.16
2022-07-27T10:18:10.342Z,100564.34
2022-07-27T10:23:33.521Z,100561.91
2022-07-27T10:28:50.979Z,100561.06
2022-07-27T10:34:01.751Z,100562.66
2022-07-27T10:39:08.681Z,100555.69
2022-07-27T10:44:39.049Z,100549.19
2022-07-27T10:49:43.390Z,100545.09
2022-07-27T10:54:56.706Z,100545.69
2022-07-27T11:00:24.143Z,100539.25
2022-07-27T11:11:05.398Z,100539.41
2022-07-27T11:16:29.665Z,100532.47
2022-07-27T11:21:42.670Z,100531.09
2022-07-27T11:26:59.731Z,100537.81
2022-07-27T11:32:23.260Z,100527.59
2022-07-27T11:37:33.037Z,100517.94
2022-07-27T11:42:55.238Z,100519.59
2022-07-27T11:48:02.362Z,100523.28
2022-07-27T11:53:16.322Z,100522.84
2022-07-27T11:58:29.731Z,100521.63
2022-07-27T12:03:47.194Z,100515.63
2022-07-27T12:08:55.177Z,100520.22
2022-07-27T12:14:15.112Z,100512.78
2022-07-27T12:19:44.662Z,100505.25
2022-07-27T12:24:52.465Z,100499.53
2022-07-27T12:30:07.456Z,100493.44
2022-07-27T12:35:37.076Z,100501.22
2022-07-27T12:40:54.350Z,100501.94
2022-07-27T12:46:13.500Z,100492.75
2022-07-27T12:51:24.336Z,100486.66
2022-07-27T12:56:29.673Z,100488.97
2022-07-27T13:01:36.011Z,100495.63
2022-07-27T13:06:59.046Z,100497.00
2022-07-27T13:12:08.237Z,100487.47
2022-07-27T13:17:19.527Z,100492.50
2022-07-27T13:22:37.017Z,100490.53
2022-07-27T13:27:47.667Z,100487.13
2022-07-27T13:32:59.461Z,100493.53
2022-07-27T13:38:18.673Z,100496.22
2022-07-27T13:43:33.403Z,100493.13
2022-07-27T13:48:40.833Z,100493.66
2022-07-27T13:54:08.053Z,100490.06
2022-07-27T13:59:23.149Z,100483.31
2022-07-27T14:04:36.249Z,100484.50
2022-07-27T14:10:22.189Z,100480.03
2022-07-27T14:15:30.397Z,100480.19
2022-07-27T14:20:43.948Z,100478.09
2022-07-27T14:25:49.161Z,100480.59
2022-07-27T14:31:02.047Z,100477.28
2022-07-27T14:36:17.456Z,100484.72
2022-07-27T14:41:42.496Z,100477.66
2022-07-27T14:47:05.691Z,100481.97
2022-07-27T14:52:15.690Z,100477.66
2022-07-27T15:02:48.630Z,100478.53
2022-07-27T15:07:52.474Z,100480.44
2022-07-27T15:13:04.429Z,100470.41
2022-07-27T15:18:23.750Z,100465.72
2022-07-27T15:23:40.723Z,100465.75
2022-07-27T15:29:07.367Z,100457.72
2022-07-27T15:34:12.007Z,100468.22
2022-07-27T15:39:22.295Z,100463.84
2022-07-27T15:44:46.263Z,100464.06
2022-07-27T15:49:53.280Z,100460.19
2022-07-27T15:54:59.961Z,100461.44
2022-07-27T16:00:11.963Z,100456.50
2022-07-27T16:05:24.898Z,100452.81
2022-07-27T16:10:44.370Z,100447.66
2022-07-27T16:16:18.831Z,100442.53
2022-07-27T16:21:28.525Z,100437.19
2022-07-27T16:27:09.299Z,100432.91
2022-07-27T16:32:34.513Z,100426.97
2022-07-27T16:38:02.753Z,100418.53
2022-07-27T16:43:38.188Z,100425.13
2022-07-27T16:48:47.800Z,100414.25
2022-07-27T16:54:01.534Z,100414.44
2022-07-27T16:59:30.321Z,100416.72
2022-07-27T17:04:37.637Z,100416.25
2022-07-27T17:09:50.531Z,100419.75
2022-07-27T17:14:56.439Z,100417.50
2022-07-27T17:20:34.833Z,100421.56
2022-07-27T17:25:41.954Z,100428.13
2022-07-27T17:30:52.228Z,100430.78
2022-07-27T17:36:04.181Z,100439.97
2022-07-27T17:41:11.460Z,100436.47
2022-07-27T17:46:19.913Z,100442.81
2022-07-27T17:51:34.177Z,100440.31
2022-07-27T17:56:44.247Z,100442.94
2022-07-27T18:02:11.795Z,100443.91
2022-07-27T18:07:38.993Z,100456.00
2022-07-27T18:13:02.387Z,100458.81
2022-07-27T18:18:27.764Z,100464.09
2022-07-27T18:23:39.660Z,100464.06
2022-07-27T18:28:59.602Z,100473.03
2022-07-27T18:34:26.897Z,100467.88
2022-07-27T18:39:35.434Z,100467.19
2022-07-27T18:44:41.391Z,100473.03
2022-07-27T18:49:48.102Z,100462.53
2022-07-27T18:54:55.058Z,100467.97
2022-07-27T19:00:03.107Z,100483.47
2022-07-27T19:05:20.173Z,100478.81
2022-07-27T19:11:07.036Z,100490.00
2022-07-27T19:16:17.904Z,100488.03
2022-07-27T19:21:32.027Z,100504.94
2022-07-27T19:26:46.447Z,100505.41
2022-07-27T19:32:10.115Z,100507.50
2022-07-27T19:37:30.472Z,100514.97
2022-07-27T19:42:45.236Z,100520.75
2022-07-27T19:47:59.535Z,100520.41
2022-07-27T19:53:08.413Z,100524.19
2022-07-27T19:58:15.720Z,100521.78
2022-07-27T20:03:30.111Z,100530.69
2022-07-27T20:09:00.963Z,100532.94
2022-07-27T20:14:09.537Z,100539.31
2022-07-27T20:19:31.209Z,100539.38
2022-07-27T20:24:43.698Z,100546.59
2022-07-27T20:29:50.386Z,100546.84
2022-07-27T20:34:56.139Z,100553.88
2022-07-27T20:40:27.609Z,100557.44
2022-07-27T20:45:43.897Z,100567.13
2022-07-27T20:50:48.252Z,100570.66
2022-07-27T20:55:58.946Z,100570.31
2022-07-27T21:01:10.270Z,100579.00
2022-07-27T21:06:31.913Z,100581.53
2022-07-27T21:11:47.541Z,100584.06
2022-07-27T21:17:04.181Z,100589.19
2022-07-27T21:22:20.944Z,100592.53
2022-07-27T21:27:29.178Z,100592.75
2022-07-27T21:32:36.722Z,100597.09
2022-07-27T21:37:43.877Z,100604.56
2022-07-27T21:43:06.965Z,100601.94
2022-07-27T21:48:33.052Z,100607.09
2022-07-27T21:53:50.073Z,100612.94
2022-07-27T21:59:03.374Z,100612.94
2022-07-27T22:04:15.943Z,100619.94
2022-07-27T22:09:31.259Z,100628.06
2022-07-27T22:15:03.165Z,100633.22
2022-07-27T22:20:17.340Z,100634.53
2022-07-27T22:25:23.125Z,100632.50
2022-07-27T22:30:33.121Z,100637.50
2022-07-27T22:35:44.368Z,100641.47
2022-07-27T22:40:49.301Z,100639.66
2022-07-27T22:45:59.990Z,100646.28
2022-07-27T22:51:07.876Z,100650.41
2022-07-27T22:56:16.586Z,100646.28
2022-07-27T23:01:47.108Z,100647.59
2022-07-27T23:06:50.990Z,100651.72
2022-07-27T23:11:56.507Z,100649.41
2022-07-27T23:17:18.890Z,100649.75
2022-07-27T23:22:31.907Z,100654.53
2022-07-27T23:27:44.337Z,100644.63
2022-07-27T23:32:55.008Z,100651.22
2022-07-27T23:38:06.767Z,100646.44
2022-07-27T23:43:13.653Z,100655.84
2022-07-27T23:48:28.854Z,100652.03
2022-07-27T23:53:40.739Z,100647.88
2022-07-27T23:58:51.530Z,100651.03
